sensor_id;sensor_type;location;lat;lon;timestamp;temperature;humidity
70851;DHT22;58475;49.662;9.636;2022-11-14T00:01:54;1.39;95.23
70851;DHT22;58475;49.662;9.636;2022-11-14T00:04:38;1.19;95.36
70851;DHT22;58475;49.662;9.636;2022-11-14T00:07:22;1.17;95.28
70851;DHT22;58475;49.662;9.636;2022-11-14T00:10:06;1.06;96.16
70851;DHT22;58475;49.662;9.636;2022-11-14T00:12:50;1.03;96.05
70851;DHT22;58475;49.662;9.636;2022-11-14T00:15:34;1.06;96.12
70851;DHT22;58475;49.662;9.636;2022-11-14T00:18:19;1.00;96.35
70851;DHT22;58475;49.662;9.636;2022-11-14T00:21:03;1.12;96.32
70851;DHT22;58475;49.662;9.636;2022-11-14T00:23:46;1.17;95.74
70851;DHT22;58475;49.662;9.636;2022-11-14T00:26:30;1.24;96.53
70851;DHT22;58475;49.662;9.636;2022-11-14T00:29:14;1.27;96.10
70851;DHT22;58475;49.662;9.636;2022-11-14T00:31:58;1.30;95.65
70851;DHT22;58475;49.662;9.636;2022-11-14T00:34:42;1.32;95.07
70851;DHT22;58475;49.662;9.636;2022-11-14T00:37:27;1.13;95.37
70851;DHT22;58475;49.662;9.636;2022-11-14T00:40:11;1.20;95.86
70851;DHT22;58475;49.662;9.636;2022-11-14T00:42:57;1.06;95.95
70851;DHT22;58475;49.662;9.636;2022-11-14T00:45:43;1.07;95.79
70851;DHT22;58475;49.662;9.636;2022-11-14T00:48:27;1.20;95.68
70851;DHT22;58475;49.662;9.636;2022-11-14T00:51:11;1.16;95.10
70851;DHT22;58475;49.662;9.636;2022-11-14T00:53:56;1.06;94.87
70851;DHT22;58475;49.662;9.636;2022-11-14T00:56:39;0.91;95.41
70851;DHT22;58475;49.662;9.636;2022-11-14T00:59:23;0.97;95.56
70851;DHT22;58475;49.662;9.636;2022-11-14T01:02:07;0.79;95.08
70851;DHT22;58475;49.662;9.636;2022-11-14T01:04:51;0.81;95.45
70851;DHT22;58475;49.662;9.636;2022-11-14T01:07:35;0.64;97.24
70851;DHT22;58475;49.662;9.636;2022-11-14T01:10:20;0.74;96.60
70851;DHT22;58475;49.662;9.636;2022-11-14T01:13:04;0.74;96.22
70851;DHT22;58475;49.662;9.636;2022-11-14T01:15:48;0.68;95.84
70851;DHT22;58475;49.662;9.636;2022-11-14T01:18:32;0.78;96.39
70851;DHT22;58475;49.662;9.636;2022-11-14T01:21:16;0.86;96.30
70851;DHT22;58475;49.662;9.636;2022-11-14T01:24:00;0.82;95.95
70851;DHT22;58475;49.662;9.636;2022-11-14T01:26:44;0.88;95.65
70851;DHT22;58475;49.662;9.636;2022-11-14T01:29:28;0.79;95.12
70851;DHT22;58475;49.662;9.636;2022-11-14T01:32:12;0.75;95.33
70851;DHT22;58475;49.662;9.636;2022-11-14T01:34:56;0.75;95.93
70851;DHT22;58475;49.662;9.636;2022-11-14T01:37:40;0.66;95.76
70851;DHT22;58475;49.662;9.636;2022-11-14T01:40:25;0.85;95.96
70851;DHT22;58475;49.662;9.636;2022-11-14T01:52:13;0.75;96.91
70851;DHT22;58475;49.662;9.636;2022-11-14T01:55:00;0.78;97.39
70851;DHT22;58475;49.662;9.636;2022-11-14T01:57:47;0.89;97.41
70851;DHT22;58475;49.662;9.636;2022-11-14T02:00:32;0.86;97.56
70851;DHT22;58475;49.662;9.636;2022-11-14T02:03:18;0.75;96.44
70851;DHT22;58475;49.662;9.636;2022-11-14T02:06:02;0.88;96.06
70851;DHT22;58475;49.662;9.636;2022-11-14T02:08:48;0.68;95.47
70851;DHT22;58475;49.662;9.636;2022-11-14T02:11:36;0.68;95.50
70851;DHT22;58475;49.662;9.636;2022-11-14T02:14:21;0.48;95.34
70851;DHT22;58475;49.662;9.636;2022-11-14T02:17:05;0.41;95.43
70851;DHT22;58475;49.662;9.636;2022-11-14T02:19:52;0.27;95.73
70851;DHT22;58475;49.662;9.636;2022-11-14T02:22:40;0.30;95.62
70851;DHT22;58475;49.662;9.636;2022-11-14T02:25:24;0.17;96.25
70851;DHT22;58475;49.662;9.636;2022-11-14T02:28:09;0.25;96.47
70851;DHT22;58475;49.662;9.636;2022-11-14T02:30:53;0.07;96.62
70851;DHT22;58475;49.662;9.636;2022-11-14T02:33:38;0.14;96.29
70851;DHT22;58475;49.662;9.636;2022-11-14T02:36:22;0.14;96.98
70851;DHT22;58475;49.662;9.636;2022-11-14T02:39:06;0.18;97.32
70851;DHT22;58475;49.662;9.636;2022-11-14T02:41:50;0.31;97.14
70851;DHT22;58475;49.662;9.636;2022-11-14T02:44:34;0.31;97.50
70851;DHT22;58475;49.662;9.636;2022-11-14T02:47:18;0.33;97.71
70851;DHT22;58475;49.662;9.636;2022-11-14T02:50:02;0.40;97.76
70851;DHT22;58475;49.662;9.636;2022-11-14T02:52:46;0.54;96.91
70851;DHT22;58475;49.662;9.636;2022-11-14T02:55:30;0.62;96.51
70851;DHT22;58475;49.662;9.636;2022-11-14T02:58:14;0.50;96.61
70851;DHT22;58475;49.662;9.636;2022-11-14T03:00:58;0.51;97.12
70851;DHT22;58475;49.662;9.636;2022-11-14T03:03:42;0.50;96.63
70851;DHT22;58475;49.662;9.636;2022-11-14T03:06:26;0.64;96.92
70851;DHT22;58475;49.662;9.636;2022-11-14T03:09:10;0.66;96.76
70851;DHT22;58475;49.662;9.636;2022-11-14T03:11:54;0.62;97.35
70851;DHT22;58475;49.662;9.636;2022-11-14T03:14:37;0.72;97.47
70851;DHT22;58475;49.662;9.636;2022-11-14T03:17:22;0.92;97.14
70851;DHT22;58475;49.662;9.636;2022-11-14T03:20:08;0.76;96.73
70851;DHT22;58475;49.662;9.636;2022-11-14T03:22:52;0.72;96.86
70851;DHT22;58475;49.662;9.636;2022-11-14T03:25:36;0.96;96.58
70851;DHT22;58475;49.662;9.636;2022-11-14T03:28:20;0.86;96.63
70851;DHT22;58475;49.662;9.636;2022-11-14T03:31:05;0.78;96.67
70851;DHT22;58475;49.662;9.636;2022-11-14T03:33:49;1.07;97.06
70851;DHT22;58475;49.662;9.636;2022-11-14T03:36:33;1.15;97.06
70851;DHT22;58475;49.662;9.636;2022-11-14T03:39:17;1.00;96.08
70851;DHT22;58475;49.662;9.636;2022-11-14T03:42:01;1.06;96.37
70851;DHT22;58475;49.662;9.636;2022-11-14T03:44:45;1.10;95.77
70851;DHT22;58475;49.662;9.636;2022-11-14T03:47:29;1.06;96.46
70851;DHT22;58475;49.662;9.636;2022-11-14T03:50:13;1.00;97.04
70851;DHT22;58475;49.662;9.636;2022-11-14T03:52:57;1.20;96.22
70851;DHT22;58475;49.662;9.636;2022-11-14T03:55:42;0.97;96.84
70851;DHT22;58475;49.662;9.636;2022-11-14T03:58:26;1.16;96.90
70851;DHT22;58475;49.662;9.636;2022-11-14T04:01:10;1.13;97.09
70851;DHT22;58475;49.662;9.636;2022-11-14T04:03:54;1.02;97.45
70851;DHT22;58475;49.662;9.636;2022-11-14T04:06:38;1.12;97.37
70851;DHT22;58475;49.662;9.636;2022-11-14T04:09:22;1.26;97.02
70851;DHT22;58475;49.662;9.636;2022-11-14T04:12:06;1.37;97.23
70851;DHT22;58475;49.662;9.636;2022-11-14T04:14:50;1.40;96.82
70851;DHT22;58475;49.662;9.636;2022-11-14T04:17:33;1.63;97.00
70851;DHT22;58475;49.662;9.636;2022-11-14T04:20:18;1.63;97.04
70851;DHT22;58475;49.662;9.636;2022-11-14T04:23:02;1.57;96.87
70851;DHT22;58475;49.662;9.636;2022-11-14T04:25:46;1.64;96.54
70851;DHT22;58475;49.662;9.636;2022-11-14T04:28:30;1.65;96.50
70851;DHT22;58475;49.662;9.636;2022-11-14T04:31:14;1.60;97.06
70851;DHT22;58475;49.662;9.636;2022-11-14T04:33:58;1.63;96.95
70851;DHT22;58475;49.662;9.636;2022-11-14T04:36:42;1.67;96.98
70851;DHT22;58475;49.662;9.636;2022-11-14T04:39:26;1.75;97.13
70851;DHT22;58475;49.662;9.636;2022-11-14T04:42:10;1.78;96.94
70851;DHT22;58475;49.662;9.636;2022-11-14T04:44:54;1.86;97.40
70851;DHT22;58475;49.662;9.636;2022-11-14T04:47:39;1.81;97.68
70851;DHT22;58475;49.662;9.636;2022-11-14T04:50:23;1.81;98.11
70851;DHT22;58475;49.662;9.636;2022-11-14T04:53:07;1.68;98.68
70851;DHT22;58475;49.662;9.636;2022-11-14T04:55:52;1.75;98.09
70851;DHT22;58475;49.662;9.636;2022-11-14T04:58:35;1.73;98.00
70851;DHT22;58475;49.662;9.636;2022-11-14T05:01:19;1.73;98.19
70851;DHT22;58475;49.662;9.636;2022-11-14T05:04:03;1.71;98.68
70851;DHT22;58475;49.662;9.636;2022-11-14T05:06:48;1.79;98.61
70851;DHT22;58475;49.662;9.636;2022-11-14T05:09:31;1.85;98.45
70851;DHT22;58475;49.662;9.636;2022-11-14T05:12:16;1.98;98.34
70851;DHT22;58475;49.662;9.636;2022-11-14T05:15:00;1.95;98.15
70851;DHT22;58475;49.662;9.636;2022-11-14T05:17:45;2.01;98.10
70851;DHT22;58475;49.662;9.636;2022-11-14T05:20:29;2.12;98.28
70851;DHT22;58475;49.662;9.636;2022-11-14T05:23:21;2.19;98.19
70851;DHT22;58475;49.662;9.636;2022-11-14T05:26:08;2.21;98.01
70851;DHT22;58475;49.662;9.636;2022-11-14T05:28:52;2.15;98.22
70851;DHT22;58475;49.662;9.636;2022-11-14T05:31:36;2.13;98.43
70851;DHT22;58475;49.662;9.636;2022-11-14T05:34:20;2.29;98.65
70851;DHT22;58475;49.662;9.636;2022-11-14T05:37:04;2.25;98.57
70851;DHT22;58475;49.662;9.636;2022-11-14T05:39:48;2.28;98.32
70851;DHT22;58475;49.662;9.636;2022-11-14T05:42:32;2.36;98.57
70851;DHT22;58475;49.662;9.636;2022-11-14T05:45:16;2.35;98.77
70851;DHT22;58475;49.662;9.636;2022-11-14T05:48:00;2.40;98.81
70851;DHT22;58475;49.662;9.636;2022-11-14T05:50:44;2.42;98.30
70851;DHT22;58475;49.662;9.636;2022-11-14T05:53:29;2.52;97.45
70851;DHT22;58475;49.662;9.636;2022-11-14T05:56:13;2.49;98.26
70851;DHT22;58475;49.662;9.636;2022-11-14T05:58:57;2.42;98.84
70851;DHT22;58475;49.662;9.636;2022-11-14T06:01:41;2.40;99.03
70851;DHT22;58475;49.662;9.636;2022-11-14T06:04:25;2.42;99.25
70851;DHT22;58475;49.662;9.636;2022-11-14T06:07:10;2.52;98.98
70851;DHT22;58475;49.662;9.636;2022-11-14T06:09:54;2.50;98.76
70851;DHT22;58475;49.662;9.636;2022-11-14T06:12:38;2.56;98.79
70851;DHT22;58475;49.662;9.636;2022-11-14T06:15:22;2.57;98.94
70851;DHT22;58475;49.662;9.636;2022-11-14T06:18:06;2.58;98.72
70851;DHT22;58475;49.662;9.636;2022-11-14T06:20:50;2.63;98.71
70851;DHT22;58475;49.662;9.636;2022-11-14T06:23:34;2.61;98.81
70851;DHT22;58475;49.662;9.636;2022-11-14T06:26:23;2.81;98.27
70851;DHT22;58475;49.662;9.636;2022-11-14T06:29:09;2.68;98.50
70851;DHT22;58475;49.662;9.636;2022-11-14T06:31:53;2.79;98.81
70851;DHT22;58475;49.662;9.636;2022-11-14T06:34:37;2.80;98.61
70851;DHT22;58475;49.662;9.636;2022-11-14T06:37:21;2.88;98.71
70851;DHT22;58475;49.662;9.636;2022-11-14T06:40:05;2.93;98.78
70851;DHT22;58475;49.662;9.636;2022-11-14T06:42:49;3.08;98.66
70851;DHT22;58475;49.662;9.636;2022-11-14T06:45:33;3.08;98.55
70851;DHT22;58475;49.662;9.636;2022-11-14T06:48:17;3.05;98.06
70851;DHT22;58475;49.662;9.636;2022-11-14T06:51:02;2.97;98.31
70851;DHT22;58475;49.662;9.636;2022-11-14T06:53:46;2.98;98.42
70851;DHT22;58475;49.662;9.636;2022-11-14T06:56:30;2.98;98.22
70851;DHT22;58475;49.662;9.636;2022-11-14T06:59:14;3.04;98.49
70851;DHT22;58475;49.662;9.636;2022-11-14T07:01:58;3.09;98.59
70851;DHT22;58475;49.662;9.636;2022-11-14T07:04:42;3.11;98.31
70851;DHT22;58475;49.662;9.636;2022-11-14T07:07:26;3.26;98.61
70851;DHT22;58475;49.662;9.636;2022-11-14T07:10:10;3.25;98.51
70851;DHT22;58475;49.662;9.636;2022-11-14T07:12:54;3.31;98.63
70851;DHT22;58475;49.662;9.636;2022-11-14T07:15:38;3.33;98.60
70851;DHT22;58475;49.662;9.636;2022-11-14T07:18:22;3.31;98.70
70851;DHT22;58475;49.662;9.636;2022-11-14T07:21:06;3.25;98.67
70851;DHT22;58475;49.662;9.636;2022-11-14T07:23:50;3.36;98.66
70851;DHT22;58475;49.662;9.636;2022-11-14T07:26:34;3.51;98.24
70851;DHT22;58475;49.662;9.636;2022-11-14T07:29:18;3.59;98.30
70851;DHT22;58475;49.662;9.636;2022-11-14T07:32:02;3.62;98.13
70851;DHT22;58475;49.662;9.636;2022-11-14T07:34:46;3.77;97.95
70851;DHT22;58475;49.662;9.636;2022-11-14T07:37:30;3.79;98.24
70851;DHT22;58475;49.662;9.636;2022-11-14T07:40:14;3.80;98.18
70851;DHT22;58475;49.662;9.636;2022-11-14T07:43:00;3.84;98.30
70851;DHT22;58475;49.662;9.636;2022-11-14T07:45:44;3.93;98.28
70851;DHT22;58475;49.662;9.636;2022-11-14T07:48:28;4.04;98.19
70851;DHT22;58475;49.662;9.636;2022-11-14T07:51:15;3.97;98.15
70851;DHT22;58475;49.662;9.636;2022-11-14T07:53:59;4.10;98.14
70851;DHT22;58475;49.662;9.636;2022-11-14T07:56:43;4.15;98.00
70851;DHT22;58475;49.662;9.636;2022-11-14T07:59:27;4.22;97.96
70851;DHT22;58475;49.662;9.636;2022-11-14T08:02:12;4.41;97.97
70851;DHT22;58475;49.662;9.636;2022-11-14T08:04:57;4.56;97.73
70851;DHT22;58475;49.662;9.636;2022-11-14T08:07:41;4.48;97.96
70851;DHT22;58475;49.662;9.636;2022-11-14T08:10:24;4.52;98.09
70851;DHT22;58475;49.662;9.636;2022-11-14T08:13:09;4.55;97.29
70851;DHT22;58475;49.662;9.636;2022-11-14T08:15:53;4.76;97.24
70851;DHT22;58475;49.662;9.636;2022-11-14T08:18:37;4.87;96.67
70851;DHT22;58475;49.662;9.636;2022-11-14T08:21:21;4.82;96.95
70851;DHT22;58475;49.662;9.636;2022-11-14T08:24:06;4.97;97.23
70851;DHT22;58475;49.662;9.636;2022-11-14T08:26:50;5.07;97.05
70851;DHT22;58475;49.662;9.636;2022-11-14T08:29:34;5.01;97.39
70851;DHT22;58475;49.662;9.636;2022-11-14T08:32:18;5.06;96.73
70851;DHT22;58475;49.662;9.636;2022-11-14T08:35:02;5.17;97.05
70851;DHT22;58475;49.662;9.636;2022-11-14T08:37:46;5.28;96.65
70851;DHT22;58475;49.662;9.636;2022-11-14T08:40:30;5.38;95.60
70851;DHT22;58475;49.662;9.636;2022-11-14T08:43:14;5.31;95.27
70851;DHT22;58475;49.662;9.636;2022-11-14T08:46:00;5.50;96.74
70851;DHT22;58475;49.662;9.636;2022-11-14T08:48:44;5.45;95.29
70851;DHT22;58475;49.662;9.636;2022-11-14T08:51:28;5.72;96.46
70851;DHT22;58475;49.662;9.636;2022-11-14T08:54:12;5.75;95.86
70851;DHT22;58475;49.662;9.636;2022-11-14T08:56:55;5.72;95.46
70851;DHT22;58475;49.662;9.636;2022-11-14T08:59:40;5.93;95.85
70851;DHT22;58475;49.662;9.636;2022-11-14T09:02:24;6.09;94.96
70851;DHT22;58475;49.662;9.636;2022-11-14T09:05:09;6.17;95.23
70851;DHT22;58475;49.662;9.636;2022-11-14T09:07:53;6.06;95.82
70851;DHT22;58475;49.662;9.636;2022-11-14T09:10:37;6.22;95.09
70851;DHT22;58475;49.662;9.636;2022-11-14T09:13:21;6.41;94.79
70851;DHT22;58475;49.662;9.636;2022-11-14T09:16:05;6.63;93.71
70851;DHT22;58475;49.662;9.636;2022-11-14T09:18:49;6.74;93.57
70851;DHT22;58475;49.662;9.636;2022-11-14T09:21:33;6.95;92.88
70851;DHT22;58475;49.662;9.636;2022-11-14T09:24:17;6.99;91.47
70851;DHT22;58475;49.662;9.636;2022-11-14T09:27:01;7.18;91.44
70851;DHT22;58475;49.662;9.636;2022-11-14T09:29:45;7.15;91.84
70851;DHT22;58475;49.662;9.636;2022-11-14T09:32:29;7.19;91.78
70851;DHT22;58475;49.662;9.636;2022-11-14T09:35:13;7.25;91.76
70851;DHT22;58475;49.662;9.636;2022-11-14T09:38:05;7.27;92.34
70851;DHT22;58475;49.662;9.636;2022-11-14T09:46:57;7.66;90.35
70851;DHT22;58475;49.662;9.636;2022-11-14T09:49:44;7.85;90.65
70851;DHT22;58475;49.662;9.636;2022-11-14T09:53:08;8.48;89.07
70851;DHT22;58475;49.662;9.636;2022-11-14T09:55:53;8.21;86.79
70851;DHT22;58475;49.662;9.636;2022-11-14T09:58:39;7.98;88.41
70851;DHT22;58475;49.662;9.636;2022-11-14T10:02:16;7.90;88.84
70851;DHT22;58475;49.662;9.636;2022-11-14T10:05:03;8.50;88.54
70851;DHT22;58475;49.662;9.636;2022-11-14T10:10:50;8.90;85.91
70851;DHT22;58475;49.662;9.636;2022-11-14T10:16:43;7.98;88.65
70851;DHT22;58475;49.662;9.636;2022-11-14T10:28:47;8.48;87.07
70851;DHT22;58475;49.662;9.636;2022-11-14T10:37:44;9.28;84.39
70851;DHT22;58475;49.662;9.636;2022-11-14T10:41:07;9.75;83.48
70851;DHT22;58475;49.662;9.636;2022-11-14T10:43:53;9.94;83.86
70851;DHT22;58475;49.662;9.636;2022-11-14T10:46:40;9.44;84.03
70851;DHT22;58475;49.662;9.636;2022-11-14T10:49:30;10.14;84.24
70851;DHT22;58475;49.662;9.636;2022-11-14T10:52:17;9.59;84.89
70851;DHT22;58475;49.662;9.636;2022-11-14T10:55:07;9.55;84.48
70851;DHT22;58475;49.662;9.636;2022-11-14T10:57:55;10.09;81.41
70851;DHT22;58475;49.662;9.636;2022-11-14T11:00:40;9.94;83.02
70851;DHT22;58475;49.662;9.636;2022-11-14T11:03:42;10.44;81.60
70851;DHT22;58475;49.662;9.636;2022-11-14T11:06:27;10.51;81.60
70851;DHT22;58475;49.662;9.636;2022-11-14T11:09:15;10.54;81.66
70851;DHT22;58475;49.662;9.636;2022-11-14T11:12:22;11.06;80.86
70851;DHT22;58475;49.662;9.636;2022-11-14T11:21:09;10.89;80.94
70851;DHT22;58475;49.662;9.636;2022-11-14T11:23:55;10.18;82.83
70851;DHT22;58475;49.662;9.636;2022-11-14T11:26:39;10.04;82.73
70851;DHT22;58475;49.662;9.636;2022-11-14T11:29:23;10.04;84.19
70851;DHT22;58475;49.662;9.636;2022-11-14T11:32:07;10.03;84.24
70851;DHT22;58475;49.662;9.636;2022-11-14T11:34:53;9.99;84.52
70851;DHT22;58475;49.662;9.636;2022-11-14T11:38:03;9.93;84.72
70851;DHT22;58475;49.662;9.636;2022-11-14T11:40:51;9.85;84.37
70851;DHT22;58475;49.662;9.636;2022-11-14T11:43:52;9.73;83.93
70851;DHT22;58475;49.662;9.636;2022-11-14T11:49:46;9.66;85.93
70851;DHT22;58475;49.662;9.636;2022-11-14T11:52:41;9.75;85.61
70851;DHT22;58475;49.662;9.636;2022-11-14T11:55:38;9.78;86.14
70851;DHT22;58475;49.662;9.636;2022-11-14T11:58:41;9.72;86.66
70851;DHT22;58475;49.662;9.636;2022-11-14T12:01:27;9.65;87.12
70851;DHT22;58475;49.662;9.636;2022-11-14T12:04:11;9.61;86.72
70851;DHT22;58475;49.662;9.636;2022-11-14T12:07:03;9.65;87.45
70851;DHT22;58475;49.662;9.636;2022-11-14T12:09:51;9.75;87.28
70851;DHT22;58475;49.662;9.636;2022-11-14T12:19:36;10.68;85.26
70851;DHT22;58475;49.662;9.636;2022-11-14T12:25:56;10.44;84.90
70851;DHT22;58475;49.662;9.636;2022-11-14T12:31:34;10.71;83.77
70851;DHT22;58475;49.662;9.636;2022-11-14T12:37:30;10.57;84.68
70851;DHT22;58475;49.662;9.636;2022-11-14T12:40:22;10.43;86.22
70851;DHT22;58475;49.662;9.636;2022-11-14T12:43:40;10.44;85.34
70851;DHT22;58475;49.662;9.636;2022-11-14T12:46:25;10.58;85.74
70851;DHT22;58475;49.662;9.636;2022-11-14T12:49:38;10.50;87.13
70851;DHT22;58475;49.662;9.636;2022-11-14T13:07:32;11.02;86.40
70851;DHT22;58475;49.662;9.636;2022-11-14T13:10:29;10.99;86.36
70851;DHT22;58475;49.662;9.636;2022-11-14T13:13:15;11.06;86.09
70851;DHT22;58475;49.662;9.636;2022-11-14T13:16:29;11.22;86.68
70851;DHT22;58475;49.662;9.636;2022-11-14T13:19:33;11.16;86.67
70851;DHT22;58475;49.662;9.636;2022-11-14T13:22:44;11.05;86.85
70851;DHT22;58475;49.662;9.636;2022-11-14T13:25:28;11.02;87.14
70851;DHT22;58475;49.662;9.636;2022-11-14T13:31:23;10.99;87.02
70851;DHT22;58475;49.662;9.636;2022-11-14T13:34:43;10.92;87.13
70851;DHT22;58475;49.662;9.636;2022-11-14T13:40:39;10.81;86.85
70851;DHT22;58475;49.662;9.636;2022-11-14T13:52:36;10.57;89.14
70851;DHT22;58475;49.662;9.636;2022-11-14T13:55:31;10.51;88.94
70851;DHT22;58475;49.662;9.636;2022-11-14T14:07:31;10.71;88.46
70851;DHT22;58475;49.662;9.636;2022-11-14T14:13:57;10.65;90.38
70851;DHT22;58475;49.662;9.636;2022-11-14T14:16:59;10.62;92.21
70851;DHT22;58475;49.662;9.636;2022-11-14T14:26:23;10.68;88.96
70851;DHT22;58475;49.662;9.636;2022-11-14T14:29:44;10.58;89.18
70851;DHT22;58475;49.662;9.636;2022-11-14T14:32:30;10.52;90.40
70851;DHT22;58475;49.662;9.636;2022-11-14T14:35:25;10.68;90.96
70851;DHT22;58475;49.662;9.636;2022-11-14T14:38:11;10.72;91.16
70851;DHT22;58475;49.662;9.636;2022-11-14T14:40:56;10.91;89.73
70851;DHT22;58475;49.662;9.636;2022-11-14T14:43:41;10.85;89.39
70851;DHT22;58475;49.662;9.636;2022-11-14T14:46:31;10.65;90.70
70851;DHT22;58475;49.662;9.636;2022-11-14T14:49:35;10.37;91.40
70851;DHT22;58475;49.662;9.636;2022-11-14T14:55:31;10.00;92.13
70851;DHT22;58475;49.662;9.636;2022-11-14T15:01:11;9.78;92.49
70851;DHT22;58475;49.662;9.636;2022-11-14T15:04:00;9.79;92.16
70851;DHT22;58475;49.662;9.636;2022-11-14T15:06:46;9.59;92.82
70851;DHT22;58475;49.662;9.636;2022-11-14T15:09:30;9.61;93.09
70851;DHT22;58475;49.662;9.636;2022-11-14T15:12:14;9.45;93.24
70851;DHT22;58475;49.662;9.636;2022-11-14T15:14:59;9.39;93.28
70851;DHT22;58475;49.662;9.636;2022-11-14T15:17:44;9.48;92.76
70851;DHT22;58475;49.662;9.636;2022-11-14T15:20:28;9.38;93.21
70851;DHT22;58475;49.662;9.636;2022-11-14T15:26:08;9.24;94.28
70851;DHT22;58475;49.662;9.636;2022-11-14T15:29:03;9.35;93.36
70851;DHT22;58475;49.662;9.636;2022-11-14T15:31:55;9.20;94.36
70851;DHT22;58475;49.662;9.636;2022-11-14T15:34:40;9.24;94.11
70851;DHT22;58475;49.662;9.636;2022-11-14T15:37:24;9.14;94.38
70851;DHT22;58475;49.662;9.636;2022-11-14T15:40:19;9.10;94.67
70851;DHT22;58475;49.662;9.636;2022-11-14T15:43:36;9.10;94.65
70851;DHT22;58475;49.662;9.636;2022-11-14T15:49:20;8.90;95.03
70851;DHT22;58475;49.662;9.636;2022-11-14T15:52:18;8.84;95.43
70851;DHT22;58475;49.662;9.636;2022-11-14T15:55:07;8.90;95.64
70851;DHT22;58475;49.662;9.636;2022-11-14T15:57:51;8.91;95.86
70851;DHT22;58475;49.662;9.636;2022-11-14T16:00:55;8.96;95.84
70851;DHT22;58475;49.662;9.636;2022-11-14T16:03:43;9.04;95.54
70851;DHT22;58475;49.662;9.636;2022-11-14T16:06:27;9.11;94.98
70851;DHT22;58475;49.662;9.636;2022-11-14T16:09:19;9.13;95.10
70851;DHT22;58475;49.662;9.636;2022-11-14T16:12:04;8.99;95.58
70851;DHT22;58475;49.662;9.636;2022-11-14T16:14:49;8.91;95.91
70851;DHT22;58475;49.662;9.636;2022-11-14T16:17:34;8.87;96.31
70851;DHT22;58475;49.662;9.636;2022-11-14T16:20:22;8.85;96.34
70851;DHT22;58475;49.662;9.636;2022-11-14T16:23:06;8.83;96.08
70851;DHT22;58475;49.662;9.636;2022-11-14T16:25:53;8.83;96.38
70851;DHT22;58475;49.662;9.636;2022-11-14T16:28:37;8.79;96.29
70851;DHT22;58475;49.662;9.636;2022-11-14T16:31:21;8.87;96.15
70851;DHT22;58475;49.662;9.636;2022-11-14T16:34:05;8.85;96.62
70851;DHT22;58475;49.662;9.636;2022-11-14T16:36:57;8.80;96.97
70851;DHT22;58475;49.662;9.636;2022-11-14T16:39:41;8.83;96.54
70851;DHT22;58475;49.662;9.636;2022-11-14T16:42:25;8.79;96.54
70851;DHT22;58475;49.662;9.636;2022-11-14T16:45:09;8.70;96.47
70851;DHT22;58475;49.662;9.636;2022-11-14T16:47:54;8.64;96.94
70851;DHT22;58475;49.662;9.636;2022-11-14T16:50:38;8.56;97.29
70851;DHT22;58475;49.662;9.636;2022-11-14T16:53:22;8.43;97.05
70851;DHT22;58475;49.662;9.636;2022-11-14T16:56:09;8.48;97.10
70851;DHT22;58475;49.662;9.636;2022-11-14T16:58:54;8.43;96.44
70851;DHT22;58475;49.662;9.636;2022-11-14T17:01:38;8.46;96.86
70851;DHT22;58475;49.662;9.636;2022-11-14T17:04:22;8.38;96.99
70851;DHT22;58475;49.662;9.636;2022-11-14T17:07:07;8.42;97.25
70851;DHT22;58475;49.662;9.636;2022-11-14T17:09:52;8.42;97.13
70851;DHT22;58475;49.662;9.636;2022-11-14T17:12:39;8.43;97.48
70851;DHT22;58475;49.662;9.636;2022-11-14T17:15:23;8.48;96.94
70851;DHT22;58475;49.662;9.636;2022-11-14T17:18:07;8.46;97.22
70851;DHT22;58475;49.662;9.636;2022-11-14T17:20:51;8.46;96.95
70851;DHT22;58475;49.662;9.636;2022-11-14T17:23:36;8.52;97.10
70851;DHT22;58475;49.662;9.636;2022-11-14T17:26:20;8.52;97.24
70851;DHT22;58475;49.662;9.636;2022-11-14T17:29:05;8.42;97.31
70851;DHT22;58475;49.662;9.636;2022-11-14T17:31:49;8.48;96.97
70851;DHT22;58475;49.662;9.636;2022-11-14T17:34:33;8.46;97.18
70851;DHT22;58475;49.662;9.636;2022-11-14T17:37:17;8.46;97.23
70851;DHT22;58475;49.662;9.636;2022-11-14T17:40:02;8.52;96.97
70851;DHT22;58475;49.662;9.636;2022-11-14T17:42:46;8.53;97.09
70851;DHT22;58475;49.662;9.636;2022-11-14T17:45:30;8.59;96.67
70851;DHT22;58475;49.662;9.636;2022-11-14T17:48:14;8.52;97.04
70851;DHT22;58475;49.662;9.636;2022-11-14T17:51:06;8.52;97.06
70851;DHT22;58475;49.662;9.636;2022-11-14T17:53:53;8.56;96.56
70851;DHT22;58475;49.662;9.636;2022-11-14T17:56:37;8.59;96.92
70851;DHT22;58475;49.662;9.636;2022-11-14T17:59:21;8.60;96.62
70851;DHT22;58475;49.662;9.636;2022-11-14T18:02:05;8.53;96.97
70851;DHT22;58475;49.662;9.636;2022-11-14T18:04:49;8.49;96.97
70851;DHT22;58475;49.662;9.636;2022-11-14T18:07:33;8.52;96.77
70851;DHT22;58475;49.662;9.636;2022-11-14T18:10:17;8.42;97.30
70851;DHT22;58475;49.662;9.636;2022-11-14T18:13:01;8.39;97.35
70851;DHT22;58475;49.662;9.636;2022-11-14T18:15:48;8.41;97.28
70851;DHT22;58475;49.662;9.636;2022-11-14T18:18:33;8.35;97.55
70851;DHT22;58475;49.662;9.636;2022-11-14T18:21:19;8.38;97.24
70851;DHT22;58475;49.662;9.636;2022-11-14T18:24:04;8.32;97.37
70851;DHT22;58475;49.662;9.636;2022-11-14T18:26:48;8.33;97.15
70851;DHT22;58475;49.662;9.636;2022-11-14T18:29:32;8.15;97.55
70851;DHT22;58475;49.662;9.636;2022-11-14T18:32:16;8.02;97.26
70851;DHT22;58475;49.662;9.636;2022-11-14T18:35:01;7.88;96.91
70851;DHT22;58475;49.662;9.636;2022-11-14T18:37:44;7.67;97.30
70851;DHT22;58475;49.662;9.636;2022-11-14T18:40:28;7.69;97.38
70851;DHT22;58475;49.662;9.636;2022-11-14T18:43:14;7.73;98.16
70851;DHT22;58475;49.662;9.636;2022-11-14T18:46:06;7.59;98.00
70851;DHT22;58475;49.662;9.636;2022-11-14T18:48:53;7.39;97.24
70851;DHT22;58475;49.662;9.636;2022-11-14T18:51:37;7.46;97.82
70851;DHT22;58475;49.662;9.636;2022-11-14T18:54:24;7.30;98.35
70851;DHT22;58475;49.662;9.636;2022-11-14T18:57:08;7.27;98.31
70851;DHT22;58475;49.662;9.636;2022-11-14T18:59:52;7.25;98.22
70851;DHT22;58475;49.662;9.636;2022-11-14T19:02:36;7.11;97.92
70851;DHT22;58475;49.662;9.636;2022-11-14T19:05:20;7.16;97.91
70851;DHT22;58475;49.662;9.636;2022-11-14T19:08:04;7.06;97.77
70851;DHT22;58475;49.662;9.636;2022-11-14T19:10:50;6.96;97.84
70851;DHT22;58475;49.662;9.636;2022-11-14T19:13:34;6.80;97.61
70851;DHT22;58475;49.662;9.636;2022-11-14T19:16:18;6.82;98.02
70851;DHT22;58475;49.662;9.636;2022-11-14T19:19:03;6.73;98.05
70851;DHT22;58475;49.662;9.636;2022-11-14T19:21:48;6.65;98.20
70851;DHT22;58475;49.662;9.636;2022-11-14T19:24:35;6.64;98.39
70851;DHT22;58475;49.662;9.636;2022-11-14T19:27:19;6.53;98.07
70851;DHT22;58475;49.662;9.636;2022-11-14T19:30:08;6.37;98.01
70851;DHT22;58475;49.662;9.636;2022-11-14T19:32:52;6.37;98.52
70851;DHT22;58475;49.662;9.636;2022-11-14T19:35:39;6.37;98.60
70851;DHT22;58475;49.662;9.636;2022-11-14T19:38:29;6.24;98.35
70851;DHT22;58475;49.662;9.636;2022-11-14T19:41:16;6.20;98.02
70851;DHT22;58475;49.662;9.636;2022-11-14T19:44:03;6.20;98.50
70851;DHT22;58475;49.662;9.636;2022-11-14T19:46:47;6.13;98.75
70851;DHT22;58475;49.662;9.636;2022-11-14T19:49:31;6.22;98.76
70851;DHT22;58475;49.662;9.636;2022-11-14T19:52:15;6.34;98.85